sensor_id;sensor_type;location;lat;lon;timestamp;pressure;altitude;pressure_sealevel;temperature;humidity
75317;BME280;63913;51.492;10.368;2023-04-24T00:00:30;97067.16;;;12.34;68.37
75317;BME280;63913;51.492;10.368;2023-04-24T00:02:56;97064.63;;;12.28;68.44
75317;BME280;63913;51.492;10.368;2023-04-24T00:05:23;97072.31;;;12.34;68.60
75317;BME280;63913;51.492;10.368;2023-04-24T00:07:49;97068.00;;;12.34;68.34
75317;BME280;63913;51.492;10.368;2023-04-24T00:10:17;97075.78;;;12.31;68.53
75317;BME280;63913;51.492;10.368;2023-04-24T00:12:43;97080.09;;;12.24;68.69
75317;BME280;63913;51.492;10.368;2023-04-24T00:15:08;97080.16;;;12.17;69.01
75317;BME280;63913;51.492;10.368;2023-04-24T00:17:34;97085.44;;;12.00;69.25
75317;BME280;63913;51.492;10.368;2023-04-24T00:20:00;97086.31;;;11.99;69.96
75317;BME280;63913;51.492;10.368;2023-04-24T00:22:30;97084.50;;;12.12;68.91
75317;BME280;63913;51.492;10.368;2023-04-24T00:24:56;97075.97;;;12.05;69.43
75317;BME280;63913;51.492;10.368;2023-04-24T00:27:21;97078.50;;;12.11;69.31
75317;BME280;63913;51.492;10.368;2023-04-24T00:29:47;97063.09;;;12.07;69.29
75317;BME280;63913;51.492;10.368;2023-04-24T00:32:13;97070.81;;;12.07;69.07
75317;BME280;63913;51.492;10.368;2023-04-24T00:34:39;97057.88;;;12.10;68.48
75317;BME280;63913;51.492;10.368;2023-04-24T00:37:04;97064.75;;;12.14;68.58
75317;BME280;63913;51.492;10.368;2023-04-24T00:39:30;97057.03;;;12.12;68.34
75317;BME280;63913;51.492;10.368;2023-04-24T00:41:56;97060.47;;;12.11;68.61
75317;BME280;63913;51.492;10.368;2023-04-24T00:44:22;97058.78;;;12.07;68.35
75317;BME280;63913;51.492;10.368;2023-04-24T00:46:48;97052.75;;;12.08;67.87
75317;BME280;63913;51.492;10.368;2023-04-24T00:49:18;97060.56;;;11.99;67.84
75317;BME280;63913;51.492;10.368;2023-04-24T00:51:43;97058.03;;;11.92;67.76
75317;BME280;63913;51.492;10.368;2023-04-24T00:54:11;97060.56;;;11.95;67.63
75317;BME280;63913;51.492;10.368;2023-04-24T00:56:36;97056.28;;;11.94;67.82
75317;BME280;63913;51.492;10.368;2023-04-24T00:59:03;97061.47;;;11.89;67.07
75317;BME280;63913;51.492;10.368;2023-04-24T01:01:29;97053.75;;;11.84;66.62
75317;BME280;63913;51.492;10.368;2023-04-24T01:03:57;97047.75;;;11.89;66.37
75317;BME280;63913;51.492;10.368;2023-04-24T01:06:23;97046.03;;;11.84;66.63
75317;BME280;63913;51.492;10.368;2023-04-24T01:08:53;97060.63;;;11.89;65.81
75317;BME280;63913;51.492;10.368;2023-04-24T01:11:21;97063.94;;;12.04;66.08
75317;BME280;63913;51.492;10.368;2023-04-24T01:13:47;97058.78;;;12.07;66.02
75317;BME280;63913;51.492;10.368;2023-04-24T01:16:13;97056.19;;;12.09;65.96
75317;BME280;63913;51.492;10.368;2023-04-24T01:18:39;97055.31;;;12.11;64.97
75317;BME280;63913;51.492;10.368;2023-04-24T01:21:05;97052.72;;;12.16;65.37
75317;BME280;63913;51.492;10.368;2023-04-24T01:23:33;97045.06;;;12.07;65.35
75317;BME280;63913;51.492;10.368;2023-04-24T01:25:58;97051.97;;;11.97;65.49
75317;BME280;63913;51.492;10.368;2023-04-24T01:28:24;97057.91;;;12.08;65.46
75317;BME280;63913;51.492;10.368;2023-04-24T01:30:50;97051.13;;;11.97;65.45
75317;BME280;63913;51.492;10.368;2023-04-24T01:33:16;97058.81;;;12.01;65.68
75317;BME280;63913;51.492;10.368;2023-04-24T01:35:42;97061.56;;;11.75;66.30
75317;BME280;63913;51.492;10.368;2023-04-24T01:38:07;97061.47;;;11.89;66.29
75317;BME280;63913;51.492;10.368;2023-04-24T01:40:35;97054.66;;;11.79;66.51
75317;BME280;63913;51.492;10.368;2023-04-24T01:43:00;97043.50;;;11.83;66.24
75317;BME280;63913;51.492;10.368;2023-04-24T01:45:26;97041.75;;;11.87;66.50
75317;BME280;63913;51.492;10.368;2023-04-24T01:47:51;97047.84;;;11.75;66.43
75317;BME280;63913;51.492;10.368;2023-04-24T01:50:18;97052.09;;;11.79;66.55
75317;BME280;63913;51.492;10.368;2023-04-24T01:52:43;97038.38;;;11.69;66.59
75317;BME280;63913;51.492;10.368;2023-04-24T01:55:09;97042.75;;;11.57;67.39
75317;BME280;63913;51.492;10.368;2023-04-24T01:57:35;97045.28;;;11.64;66.83
75317;BME280;63913;51.492;10.368;2023-04-24T02:00:01;97035.84;;;11.62;66.67
75317;BME280;63913;51.492;10.368;2023-04-24T02:02:28;97040.94;;;11.72;66.56
75317;BME280;63913;51.492;10.368;2023-04-24T02:04:56;97040.09;;;11.70;66.34
75317;BME280;63913;51.492;10.368;2023-04-24T02:07:22;97036.69;;;11.65;66.62
75317;BME280;63913;51.492;10.368;2023-04-24T02:09:47;97027.25;;;11.61;66.89
75317;BME280;63913;51.492;10.368;2023-04-24T02:12:13;97041.00;;;11.65;66.96
75317;BME280;63913;51.492;10.368;2023-04-24T02:14:39;97046.16;;;11.62;66.90
75317;BME280;63913;51.492;10.368;2023-04-24T02:17:04;97047.81;;;11.70;67.04
75317;BME280;63913;51.492;10.368;2023-04-24T02:19:30;97054.69;;;11.70;67.05
75317;BME280;63913;51.492;10.368;2023-04-24T02:21:56;97041.81;;;11.73;67.14
75317;BME280;63913;51.492;10.368;2023-04-24T02:24:21;97035.81;;;11.75;66.60
75317;BME280;63913;51.492;10.368;2023-04-24T02:26:46;97042.66;;;11.76;66.60
75317;BME280;63913;51.492;10.368;2023-04-24T02:29:12;97038.38;;;11.71;66.67
75317;BME280;63913;51.492;10.368;2023-04-24T02:31:37;97039.22;;;11.76;66.65
75317;BME280;63913;51.492;10.368;2023-04-24T02:34:02;97034.97;;;11.63;67.37
75317;BME280;63913;51.492;10.368;2023-04-24T02:36:28;97028.13;;;11.60;67.53
75317;BME280;63913;51.492;10.368;2023-04-24T02:38:53;97032.38;;;11.70;67.68
75317;BME280;63913;51.492;10.368;2023-04-24T02:41:19;97035.06;;;11.51;68.46
75317;BME280;63913;51.492;10.368;2023-04-24T02:43:44;97042.78;;;11.46;68.98
75317;BME280;63913;51.492;10.368;2023-04-24T02:46:10;97032.50;;;11.51;69.27
75317;BME280;63913;51.492;10.368;2023-04-24T02:48:35;97033.34;;;11.43;69.69
75317;BME280;63913;51.492;10.368;2023-04-24T02:51:01;97033.34;;;11.45;70.07
75317;BME280;63913;51.492;10.368;2023-04-24T02:53:26;97026.53;;;11.36;70.45
75317;BME280;63913;51.492;10.368;2023-04-24T02:55:52;97024.00;;;11.29;71.27
75317;BME280;63913;51.492;10.368;2023-04-24T02:58:17;97018.03;;;11.19;71.79
75317;BME280;63913;51.492;10.368;2023-04-24T03:00:46;97018.06;;;11.16;72.20
75317;BME280;63913;51.492;10.368;2023-04-24T03:03:12;97025.81;;;11.10;72.60
75317;BME280;63913;51.492;10.368;2023-04-24T03:05:37;97017.22;;;11.16;72.37
75317;BME280;63913;51.492;10.368;2023-04-24T03:08:02;97011.22;;;11.04;73.05
75317;BME280;63913;51.492;10.368;2023-04-24T03:10:28;97023.28;;;10.93;73.66
75317;BME280;63913;51.492;10.368;2023-04-24T03:12:53;97021.59;;;10.94;73.77
75317;BME280;63913;51.492;10.368;2023-04-24T03:15:20;97019.03;;;10.82;74.26
75317;BME280;63913;51.492;10.368;2023-04-24T03:17:45;97013.88;;;10.85;74.26
75317;BME280;63913;51.492;10.368;2023-04-24T03:20:11;97011.31;;;10.83;74.44
75317;BME280;63913;51.492;10.368;2023-04-24T03:22:36;97008.72;;;10.89;73.86
75317;BME280;63913;51.492;10.368;2023-04-24T03:25:05;97017.28;;;10.90;74.06
75317;BME280;63913;51.492;10.368;2023-04-24T03:27:31;97006.13;;;11.00;73.32
75317;BME280;63913;51.492;10.368;2023-04-24T03:30:03;96999.22;;;11.08;73.21
75317;BME280;63913;51.492;10.368;2023-04-24T03:32:49;97006.09;;;11.07;73.08
75317;BME280;63913;51.492;10.368;2023-04-24T03:35:19;96998.41;;;10.95;73.60
75317;BME280;63913;51.492;10.368;2023-04-24T03:37:46;96995.88;;;10.94;73.60
75317;BME280;63913;51.492;10.368;2023-04-24T03:40:30;97006.19;;;10.83;74.06
75317;BME280;63913;51.492;10.368;2023-04-24T03:42:57;96997.56;;;10.92;73.92
75317;BME280;63913;51.492;10.368;2023-04-24T03:45:22;97010.47;;;10.77;74.49
75317;BME280;63913;51.492;10.368;2023-04-24T03:47:50;96999.31;;;10.85;73.78
75317;BME280;63913;51.492;10.368;2023-04-24T03:50:15;96995.00;;;10.93;73.81
75317;BME280;63913;51.492;10.368;2023-04-24T03:52:42;96999.31;;;10.81;73.92
75317;BME280;63913;51.492;10.368;2023-04-24T03:55:07;97004.47;;;10.85;74.05
75317;BME280;63913;51.492;10.368;2023-04-24T03:57:40;97004.44;;;10.91;73.75
75317;BME280;63913;51.492;10.368;2023-04-24T04:00:12;97004.41;;;11.00;72.95
75317;BME280;63913;51.492;10.368;2023-04-24T04:02:45;97012.91;;;11.12;72.69
75317;BME280;63913;51.492;10.368;2023-04-24T04:05:10;97010.34;;;11.16;72.74
75317;BME280;63913;51.492;10.368;2023-04-24T04:07:35;97006.88;;;11.23;72.38
75317;BME280;63913;51.492;10.368;2023-04-24T04:10:01;97000.88;;;11.24;72.10
75317;BME280;63913;51.492;10.368;2023-04-24T04:12:27;97011.16;;;11.26;72.21
75317;BME280;63913;51.492;10.368;2023-04-24T04:14:52;96998.25;;;11.30;72.02
75317;BME280;63913;51.492;10.368;2023-04-24T04:17:18;97005.16;;;11.19;72.50
75317;BME280;63913;51.492;10.368;2023-04-24T04:19:43;97010.31;;;11.24;72.48
75317;BME280;63913;51.492;10.368;2023-04-24T04:22:09;97005.19;;;11.12;72.85
75317;BME280;63913;51.492;10.368;2023-04-24T04:24:41;97008.66;;;11.11;73.36
75317;BME280;63913;51.492;10.368;2023-04-24T04:27:09;97017.25;;;11.09;73.19
75317;BME280;63913;51.492;10.368;2023-04-24T04:29:42;97012.06;;;11.17;73.23
75317;BME280;63913;51.492;10.368;2023-04-24T04:32:10;97014.63;;;11.13;74.09
75317;BME280;63913;51.492;10.368;2023-04-24T04:34:35;97008.66;;;11.11;73.92
75317;BME280;63913;51.492;10.368;2023-04-24T04:37:03;97010.34;;;11.18;73.68
75317;BME280;63913;51.492;10.368;2023-04-24T04:39:44;97016.34;;;11.15;73.35
75317;BME280;63913;51.492;10.368;2023-04-24T04:42:16;97003.44;;;11.23;73.03
75317;BME280;63913;51.492;10.368;2023-04-24T04:44:42;97000.84;;;11.30;72.89
75317;BME280;63913;51.492;10.368;2023-04-24T04:47:14;97005.94;;;11.42;72.76
75317;BME280;63913;51.492;10.368;2023-04-24T04:49:40;96995.69;;;11.33;72.77
75317;BME280;63913;51.492;10.368;2023-04-24T04:52:12;97000.88;;;11.21;73.12
75317;BME280;63913;51.492;10.368;2023-04-24T04:54:37;96985.47;;;11.17;73.30
75317;BME280;63913;51.492;10.368;2023-04-24T04:57:03;96995.72;;;11.23;73.04
75317;BME280;63913;51.492;10.368;2023-04-24T04:59:28;96981.16;;;11.23;72.90
75317;BME280;63913;51.492;10.368;2023-04-24T05:02:01;96980.28;;;11.24;72.96
75317;BME280;63913;51.492;10.368;2023-04-24T05:04:26;96989.72;;;11.19;72.92
75317;BME280;63913;51.492;10.368;2023-04-24T05:06:52;96985.47;;;11.12;73.19
75317;BME280;63913;51.492;10.368;2023-04-24T05:09:19;96984.63;;;11.12;73.42
75317;BME280;63913;51.492;10.368;2023-04-24T05:11:57;96989.78;;;11.16;73.26
75317;BME280;63913;51.492;10.368;2023-04-24T05:14:23;96989.81;;;11.08;73.37
75317;BME280;63913;51.492;10.368;2023-04-24T05:16:49;96989.84;;;10.98;73.89
75317;BME280;63913;51.492;10.368;2023-04-24T05:19:17;97000.09;;;11.05;73.46
75317;BME280;63913;51.492;10.368;2023-04-24T05:21:44;97000.97;;;10.98;73.68
75317;BME280;63913;51.492;10.368;2023-04-24T05:24:10;97002.66;;;11.08;73.81
75317;BME280;63913;51.492;10.368;2023-04-24T05:26:44;97001.84;;;11.02;74.02
75317;BME280;63913;51.492;10.368;2023-04-24T05:29:11;97002.72;;;10.93;74.31
75317;BME280;63913;51.492;10.368;2023-04-24T05:31:37;97008.72;;;10.94;74.46
75317;BME280;63913;51.492;10.368;2023-04-24T05:34:02;97023.25;;;10.96;74.16
75317;BME280;63913;51.492;10.368;2023-04-24T05:36:28;97015.53;;;11.04;73.99
75317;BME280;63913;51.492;10.368;2023-04-24T05:38:53;97018.13;;;11.02;73.52
75317;BME280;63913;51.492;10.368;2023-04-24T05:41:19;97021.53;;;11.04;73.86
75317;BME280;63913;51.492;10.368;2023-04-24T05:43:44;97018.16;;;10.92;73.95
75317;BME280;63913;51.492;10.368;2023-04-24T05:46:11;97030.97;;;10.96;74.32
75317;BME280;63913;51.492;10.368;2023-04-24T05:48:38;97036.97;;;11.09;73.96
75317;BME280;63913;51.492;10.368;2023-04-24T05:51:03;97048.06;;;11.11;73.85
75317;BME280;63913;51.492;10.368;2023-04-24T05:53:29;97047.22;;;11.12;73.99
75317;BME280;63913;51.492;10.368;2023-04-24T05:55:54;97045.50;;;11.14;74.24
75317;BME280;63913;51.492;10.368;2023-04-24T05:58:21;97037.81;;;11.09;74.35
75317;BME280;63913;51.492;10.368;2023-04-24T06:00:46;97043.75;;;11.25;73.65
75317;BME280;63913;51.492;10.368;2023-04-24T06:03:12;97047.22;;;11.18;73.53
75317;BME280;63913;51.492;10.368;2023-04-24T06:05:38;97040.34;;;11.13;73.43
75317;BME280;63913;51.492;10.368;2023-04-24T06:08:03;97036.88;;;11.27;72.28
75317;BME280;63913;51.492;10.368;2023-04-24T06:10:33;97037.72;;;11.29;72.03
75317;BME280;63913;51.492;10.368;2023-04-24T06:12:58;97036.00;;;11.28;72.25
75317;BME280;63913;51.492;10.368;2023-04-24T06:15:28;97038.56;;;11.30;71.17
75317;BME280;63913;51.492;10.368;2023-04-24T06:17:57;97044.53;;;11.41;70.94
75317;BME280;63913;51.492;10.368;2023-04-24T06:20:26;97052.31;;;11.30;70.96
75317;BME280;63913;51.492;10.368;2023-04-24T06:22:52;97043.69;;;11.36;71.08
75317;BME280;63913;51.492;10.368;2023-04-24T06:25:19;97049.69;;;11.41;70.08
75317;BME280;63913;51.492;10.368;2023-04-24T06:27:44;97037.69;;;11.40;69.35
75317;BME280;63913;51.492;10.368;2023-04-24T06:30:10;97041.97;;;11.39;68.85
75317;BME280;63913;51.492;10.368;2023-04-24T06:32:37;97024.03;;;11.24;68.70
75317;BME280;63913;51.492;10.368;2023-04-24T06:35:03;97030.88;;;11.24;68.89
75317;BME280;63913;51.492;10.368;2023-04-24T06:37:29;97040.31;;;11.20;68.54
75317;BME280;63913;51.492;10.368;2023-04-24T06:39:54;97042.94;;;11.17;68.39
75317;BME280;63913;51.492;10.368;2023-04-24T06:42:20;97048.94;;;11.16;67.54
75317;BME280;63913;51.492;10.368;2023-04-24T06:44:52;97050.63;;;11.22;67.31
75317;BME280;63913;51.492;10.368;2023-04-24T06:47:17;97048.91;;;11.25;67.05
75317;BME280;63913;51.492;10.368;2023-04-24T06:49:43;97039.47;;;11.23;66.75
75317;BME280;63913;51.492;10.368;2023-04-24T06:52:09;97035.19;;;11.23;66.71
75317;BME280;63913;51.492;10.368;2023-04-24T06:54:34;97045.47;;;11.26;66.80
75317;BME280;63913;51.492;10.368;2023-04-24T06:57:00;97042.03;;;11.26;67.20
75317;BME280;63913;51.492;10.368;2023-04-24T06:59:29;97053.16;;;11.32;66.18
75317;BME280;63913;51.492;10.368;2023-04-24T07:01:56;97047.16;;;11.29;66.30
75317;BME280;63913;51.492;10.368;2023-04-24T07:04:22;97052.31;;;11.30;66.27
75317;BME280;63913;51.492;10.368;2023-04-24T07:06:50;97057.41;;;11.36;66.19
75317;BME280;63913;51.492;10.368;2023-04-24T07:09:16;97055.69;;;11.43;65.90
75317;BME280;63913;51.492;10.368;2023-04-24T07:11:44;97059.94;;;11.45;65.78
75317;BME280;63913;51.492;10.368;2023-04-24T07:14:09;97060.81;;;11.47;65.41
75317;BME280;63913;51.492;10.368;2023-04-24T07:16:35;97062.47;;;11.56;63.85
75317;BME280;63913;51.492;10.368;2023-04-24T07:19:01;97058.19;;;11.58;64.31
75317;BME280;63913;51.492;10.368;2023-04-24T07:21:26;97051.28;;;11.63;64.04
75317;BME280;63913;51.492;10.368;2023-04-24T07:23:52;97065.88;;;11.66;62.97
75317;BME280;63913;51.492;10.368;2023-04-24T07:26:18;97071.03;;;11.66;60.88
75317;BME280;63913;51.492;10.368;2023-04-24T07:28:43;97069.38;;;11.51;59.84
75317;BME280;63913;51.492;10.368;2023-04-24T07:31:08;97064.28;;;11.42;60.95
75317;BME280;63913;51.492;10.368;2023-04-24T07:33:34;97065.09;;;11.45;60.79
75317;BME280;63913;51.492;10.368;2023-04-24T07:36:02;97059.91;;;11.58;60.99
75317;BME280;63913;51.492;10.368;2023-04-24T07:38:29;97075.31;;;11.65;61.39
75317;BME280;63913;51.492;10.368;2023-04-24T07:40:55;97068.38;;;11.82;60.21
75317;BME280;63913;51.492;10.368;2023-04-24T07:43:21;97067.44;;;11.93;59.91
75317;BME280;63913;51.492;10.368;2023-04-24T07:45:47;97077.75;;;11.97;59.18
75317;BME280;63913;51.492;10.368;2023-04-24T07:48:12;97088.00;;;12.05;59.29
75317;BME280;63913;51.492;10.368;2023-04-24T07:50:41;97088.81;;;12.08;57.91
75317;BME280;63913;51.492;10.368;2023-04-24T07:53:07;97091.53;;;11.90;55.88
75317;BME280;63913;51.492;10.368;2023-04-24T07:55:32;97075.28;;;11.76;56.31
75317;BME280;63913;51.492;10.368;2023-04-24T07:57:57;97106.97;;;11.85;57.47
75317;BME280;63913;51.492;10.368;2023-04-24T08:00:23;97088.91;;;11.93;53.40
75317;BME280;63913;51.492;10.368;2023-04-24T08:02:48;97076.88;;;11.97;53.96
75317;BME280;63913;51.492;10.368;2023-04-24T08:05:13;97083.66;;;12.08;53.15
75317;BME280;63913;51.492;10.368;2023-04-24T08:07:39;97086.22;;;12.11;52.57
75317;BME280;63913;51.492;10.368;2023-04-24T08:10:05;97086.13;;;12.28;53.19
75317;BME280;63913;51.492;10.368;2023-04-24T08:12:31;97081.81;;;12.29;52.37
75317;BME280;63913;51.492;10.368;2023-04-24T08:14:57;97086.91;;;12.36;54.48
75317;BME280;63913;51.492;10.368;2023-04-24T08:17:22;97104.13;;;12.31;52.04
75317;BME280;63913;51.492;10.368;2023-04-24T08:19:47;97107.63;;;12.24;52.65
75317;BME280;63913;51.492;10.368;2023-04-24T08:22:14;97103.34;;;12.23;51.33
75317;BME280;63913;51.492;10.368;2023-04-24T08:24:40;97106.72;;;12.30;52.96
75317;BME280;63913;51.492;10.368;2023-04-24T08:27:05;97112.84;;;12.12;52.27
75317;BME280;63913;51.492;10.368;2023-04-24T08:29:31;97120.47;;;12.27;52.41
75317;BME280;63913;51.492;10.368;2023-04-24T08:31:57;97120.47;;;12.32;52.68
75317;BME280;63913;51.492;10.368;2023-04-24T08:34:22;97113.41;;;12.53;52.45
75317;BME280;63913;51.492;10.368;2023-04-24T08:36:48;97113.22;;;12.73;51.32
75317;BME280;63913;51.492;10.368;2023-04-24T08:39:14;97107.91;;;12.90;51.94
75317;BME280;63913;51.492;10.368;2023-04-24T08:41:42;97113.22;;;12.73;50.62
75317;BME280;63913;51.492;10.368;2023-04-24T08:44:11;97133.78;;;12.84;49.99
75317;BME280;63913;51.492;10.368;2023-04-24T08:46:39;97118.53;;;12.58;50.11
75317;BME280;63913;51.492;10.368;2023-04-24T08:49:04;97126.31;;;12.49;52.88
75317;BME280;63913;51.492;10.368;2023-04-24T08:51:30;97134.22;;;12.31;52.69
75317;BME280;63913;51.492;10.368;2023-04-24T08:53:57;97138.66;;;12.03;52.70
75317;BME280;63913;51.492;10.368;2023-04-24T08:56:23;97154.19;;;11.91;53.49
75317;BME280;63913;51.492;10.368;2023-04-24T08:58:53;97158.56;;;11.66;53.20
75317;BME280;63913;51.492;10.368;2023-04-24T09:01:20;97159.44;;;11.59;53.39
75317;BME280;63913;51.492;10.368;2023-04-24T09:03:48;97167.94;;;11.87;52.60
75317;BME280;63913;51.492;10.368;2023-04-24T09:06:14;97155.06;;;11.85;53.18
75317;BME280;63913;51.492;10.368;2023-04-24T09:08:40;97155.84;;;12.07;52.85
75317;BME280;63913;51.492;10.368;2023-04-24T09:11:06;97156.72;;;11.98;50.84
75317;BME280;63913;51.492;10.368;2023-04-24T09:13:33;97162.75;;;11.93;51.52
75317;BME280;63913;51.492;10.368;2023-04-24T09:15:58;97171.41;;;11.72;51.25
75317;BME280;63913;51.492;10.368;2023-04-24T09:18:26;97174.03;;;11.57;51.59
75317;BME280;63913;51.492;10.368;2023-04-24T09:21:02;97178.28;;;11.65;52.07
75317;BME280;63913;51.492;10.368;2023-04-24T09:23:30;97183.47;;;11.55;52.05
75317;BME280;63913;51.492;10.368;2023-04-24T09:25:57;97175.75;;;11.56;51.57
75317;BME280;63913;51.492;10.368;2023-04-24T09:28:29;97164.22;;;12.38;48.52
75317;BME280;63913;51.492;10.368;2023-04-24T09:31:08;97154.19;;;13.13;47.16
75317;BME280;63913;51.492;10.368;2023-04-24T09:33:34;97165.50;;;13.81;47.34
75317;BME280;63913;51.492;10.368;2023-04-24T09:36:00;97151.41;;;14.06;45.80
75317;BME280;63913;51.492;10.368;2023-04-24T09:38:34;97162.91;;;13.82;46.46
75317;BME280;63913;51.492;10.368;2023-04-24T09:41:07;97152.38;;;13.22;46.43
75317;BME280;63913;51.492;10.368;2023-04-24T09:43:34;97171.59;;;12.88;46.80
75317;BME280;63913;51.492;10.368;2023-04-24T09:46:05;97175.94;;;12.81;47.87
75317;BME280;63913;51.492;10.368;2023-04-24T09:48:36;97166.75;;;12.45;48.09
75317;BME280;63913;51.492;10.368;2023-04-24T09:51:04;97170.06;;;12.64;47.99
75317;BME280;63913;51.492;10.368;2023-04-24T09:53:30;97194.81;;;12.86;47.63
75317;BME280;63913;51.492;10.368;2023-04-24T09:56:02;97181.31;;;12.54;47.53
75317;BME280;63913;51.492;10.368;2023-04-24T09:58:28;97164.25;;;12.33;48.47
75317;BME280;63913;51.492;10.368;2023-04-24T10:00:55;97186.63;;;12.25;48.78
75317;BME280;63913;51.492;10.368;2023-04-24T10:03:25;97184.00;;;12.39;49.55
75317;BME280;63913;51.492;10.368;2023-04-24T10:05:52;97184.00;;;12.37;49.29
75317;BME280;63913;51.492;10.368;2023-04-24T10:08:18;97184.09;;;12.23;49.99
75317;BME280;63913;51.492;10.368;2023-04-24T10:10:45;97173.81;;;12.13;49.68
75317;BME280;63913;51.492;10.368;2023-04-24T10:13:12;97191.00;;;12.14;49.21
75317;BME280;63913;51.492;10.368;2023-04-24T10:15:40;97181.50;;;12.17;50.01
75317;BME280;63913;51.492;10.368;2023-04-24T10:18:06;97181.50;;;12.20;49.68
75317;BME280;63913;51.492;10.368;2023-04-24T10:20:32;97186.72;;;12.11;50.89
75317;BME280;63913;51.492;10.368;2023-04-24T10:22:59;97194.50;;;11.96;50.60
75317;BME280;63913;51.492;10.368;2023-04-24T10:25:27;97187.69;;;11.91;50.27
75317;BME280;63913;51.492;10.368;2023-04-24T10:27:53;97181.63;;;11.96;50.04
75317;BME280;63913;51.492;10.368;2023-04-24T10:30:23;97177.41;;;11.80;51.24
75317;BME280;63913;51.492;10.368;2023-04-24T10:32:48;97177.41;;;11.80;50.89
75317;BME280;63913;51.492;10.368;2023-04-24T10:35:15;97187.69;;;11.84;51.18
75317;BME280;63913;51.492;10.368;2023-04-24T10:37:46;97179.06;;;11.96;51.38
75317;BME280;63913;51.492;10.368;2023-04-24T10:40:17;97196.25;;;11.88;51.53
75317;BME280;63913;51.492;10.368;2023-04-24T10:42:47;97177.41;;;11.81;51.21
75317;BME280;63913;51.492;10.368;2023-04-24T10:45:20;97179.09;;;11.89;52.02
75317;BME280;63913;51.492;10.368;2023-04-24T10:48:02;97185.88;;;12.03;52.19
75317;BME280;63913;51.492;10.368;2023-04-24T10:50:30;97195.38;;;11.92;51.68
75317;BME280;63913;51.492;10.368;2023-04-24T10:53:09;97180.81;;;11.88;52.50
75317;BME280;63913;51.492;10.368;2023-04-24T10:55:48;97180.81;;;11.85;52.63
75317;BME280;63913;51.492;10.368;2023-04-24T10:58:14;97184.25;;;11.90;53.10
75317;BME280;63913;51.492;10.368;2023-04-24T11:00:42;97180.81;;;11.87;52.81
75317;BME280;63913;51.492;10.368;2023-04-24T11:05:52;97185.09;;;11.86;53.73
75317;BME280;63913;51.492;10.368;2023-04-24T11:08:23;97181.56;;;12.16;52.23
75317;BME280;63913;51.492;10.368;2023-04-24T11:13:22;97185.84;;;12.14;52.03
75317;BME280;63913;51.492;10.368;2023-04-24T11:19:07;97168.31;;;12.66;51.26
75317;BME280;63913;51.492;10.368;2023-04-24T11:21:45;97177.56;;;12.94;49.82
75317;BME280;63913;51.492;10.368;2023-04-24T11:24:49;97168.38;;;12.60;50.30
75317;BME280;63913;51.492;10.368;2023-04-24T11:27:22;97167.44;;;12.69;50.23
75317;BME280;63913;51.492;10.368;2023-04-24T11:29:58;97173.50;;;12.65;50.88
75317;BME280;63913;51.492;10.368;2023-04-24T11:35:00;97168.44;;;12.51;51.64
75317;BME280;63913;51.492;10.368;2023-04-24T11:37:29;97169.28;;;12.53;50.83
75317;BME280;63913;51.492;10.368;2023-04-24T11:39:58;97161.59;;;12.44;51.22
75317;BME280;63913;51.492;10.368;2023-04-24T11:42:24;97158.22;;;12.40;51.92
75317;BME280;63913;51.492;10.368;2023-04-24T11:44:52;97161.59;;;12.42;50.59
75317;BME280;63913;51.492;10.368;2023-04-24T11:47:18;97165.09;;;12.40;50.78
75317;BME280;63913;51.492;10.368;2023-04-24T11:49:43;97179.66;;;12.41;51.77
75317;BME280;63913;51.492;10.368;2023-04-24T11:52:09;97177.06;;;12.41;51.17
75317;BME280;63913;51.492;10.368;2023-04-24T11:54:36;97178.84;;;12.33;52.13
75317;BME280;63913;51.492;10.368;2023-04-24T11:57:04;97180.59;;;12.29;52.83
75317;BME280;63913;51.492;10.368;2023-04-24T11:59:35;97186.59;;;12.33;53.29
75317;BME280;63913;51.492;10.368;2023-04-24T12:02:02;97184.13;;;12.14;53.45
75317;BME280;63913;51.492;10.368;2023-04-24T12:04:38;97223.81;;;11.57;61.16
75317;BME280;63913;51.492;10.368;2023-04-24T12:07:04;97232.41;;;11.27;64.79
75317;BME280;63913;51.492;10.368;2023-04-24T12:09:44;97248.72;;;11.13;68.14
75317;BME280;63913;51.492;10.368;2023-04-24T12:12:11;97236.72;;;11.21;68.77
75317;BME280;63913;51.492;10.368;2023-04-24T12:14:50;97249.59;;;11.08;64.82
75317;BME280;63913;51.492;10.368;2023-04-24T12:17:17;97251.28;;;11.13;68.85
75317;BME280;63913;51.492;10.368;2023-04-24T12:19:47;97258.16;;;11.01;68.18
75317;BME280;63913;51.492;10.368;2023-04-24T12:22:12;97259.88;;;11.01;66.97
75317;BME280;63913;51.492;10.368;2023-04-24T12:24:58;97255.59;;;11.01;65.69
75317;BME280;63913;51.492;10.368;2023-04-24T12:27:24;97252.13;;;10.95;62.94
75317;BME280;63913;51.492;10.368;2023-04-24T12:29:56;97254.72;;;10.93;62.57
75317;BME280;63913;51.492;10.368;2023-04-24T12:32:23;97266.69;;;10.87;63.33
75317;BME280;63913;51.492;10.368;2023-04-24T12:34:53;97238.44;;;10.97;65.48
75317;BME280;63913;51.492;10.368;2023-04-24T12:37:20;97243.56;;;10.97;62.09
75317;BME280;63913;51.492;10.368;2023-04-24T12:42:31;97242.72;;;11.00;63.24
75317;BME280;63913;51.492;10.368;2023-04-24T12:45:01;97241.03;;;10.94;62.23
75317;BME280;63913;51.492;10.368;2023-04-24T12:47:27;97239.28;;;10.87;63.02
75317;BME280;63913;51.492;10.368;2023-04-24T12:49:54;97248.69;;;10.64;65.22
75317;BME280;63913;51.492;10.368;2023-04-24T12:52:23;97249.50;;;10.36;68.09
75317;BME280;63913;51.492;10.368;2023-04-24T12:54:50;97254.59;;;10.26;69.97
75317;BME280;63913;51.492;10.368;2023-04-24T12:57:18;97285.22;;;9.87;68.32
75317;BME280;63913;51.492;10.368;2023-04-24T12:59:43;97276.72;;;9.97;68.22
75317;BME280;63913;51.492;10.368;2023-04-24T13:02:09;97281.00;;;10.06;68.60
75317;BME280;63913;51.492;10.368;2023-04-24T13:04:35;97289.59;;;10.09;64.78